Time;durP1;ratioP1;P1;durP2;ratioP2;P2;SDS_P1;SDS_P2;PMS_P1;PMS_P2;Temp;Humidity;BMP_temperature;BMP_pressure;BME280_temperature;BME280_humidity;BME280_pressure;Samples;Min_cycle;Max_cycle;Signal;HPM_P1;HPM_P2
2022/02/09 00:01:49;;;;;;;;;;;;;;;29.32;28.86;101476.25;5053327;28;1962;-78
2022/02/09 00:04:25;;;;;;;;;;;;;;;29.55;28.56;101473.59;5052829;28;1022;-77
2022/02/09 00:07:03;;;;;;;;;;;;;;;29.47;28.88;101464.69;5052012;28;986;-77
2022/02/09 00:09:29;;;;;;;;;;;;;;;28.80;29.35;101469.00;5051770;28;907;-76
2022/02/09 00:12:04;;;;;;;;;;;;;;;29.30;29.11;101475.63;5052929;28;1288;-78
2022/02/09 00:14:39;;;;;;;;;;;;;;;27.38;31.10;101465.25;5052796;28;1086;-76
2022/02/09 00:17:25;;;;;;;;;;;;;;;29.06;29.43;101478.19;5051796;28;979;-76
2022/02/09 00:20:12;;;;;;;;;;;;;;;29.27;29.14;101476.09;5053251;28;809;-75
2022/02/09 00:22:50;;;;;;;;;;;;;;;29.46;28.39;101483.38;5081008;22;3803;-75
2022/02/09 00:26:22;;;;;;;;;;;;;;;29.66;28.56;101483.16;5071302;28;911;-76
2022/02/09 00:28:43;;;;;;;;;;;;;;;28.93;29.48;101489.50;5050881;28;1789;-77
2022/02/09 00:31:31;;;;;;;;;;;;;;;29.30;29.14;101482.06;5054933;28;1382;-77
2022/02/09 00:37:13;;;;;;;;;;;;;;;28.92;29.46;101494.25;5065953;28;1062;-75
2022/02/09 00:42:38;;;;;;;;;;;;;;;29.51;28.77;101494.72;5071526;28;1914;-76
2022/02/09 00:59:20;;;;;;;;;;;;;;;27.34;32.28;101502.97;5072796;28;1277;-77
2022/02/09 01:40:26;;;;;;;;;;;;;;;29.03;29.72;101512.19;5032047;28;808;-77
2022/02/09 01:43:46;;;;;;;;;;;;;;;28.65;30.17;101508.44;5031614;28;1983;-76
2022/02/09 01:56:54;;;;;;;;;;;;;;;29.41;29.36;101511.22;5031489;28;1173;-75
2022/02/09 01:59:20;;;;;;;;;;;;;;;28.94;29.57;101510.78;5031744;28;1073;-77
2022/02/09 02:01:47;;;;;;;;;;;;;;;28.46;30.46;101510.25;5013589;28;1977;-76
2022/02/09 02:04:13;;;;;;;;;;;;;;;27.99;30.87;101509.63;5031280;28;1034;-76
2022/02/09 02:06:44;;;;;;;;;;;;;;;27.30;31.58;101500.81;5031475;28;1057;-75
2022/02/09 02:09:11;;;;;;;;;;;;;;;27.43;31.58;101502.78;5031356;28;730;-77
2022/02/09 02:11:44;;;;;;;;;;;;;;;27.32;31.75;101504.25;5031280;28;1286;-76
2022/02/09 02:14:21;;;;;;;;;;;;;;;26.73;32.31;101490.19;5031062;28;820;-74
2022/02/09 02:16:52;;;;;;;;;;;;;;;28.32;30.37;101489.09;5031175;28;932;-78
2022/02/09 02:19:30;;;;;;;;;;;;;;;27.78;31.39;101485.69;5013435;28;1301;-76
2022/02/09 02:22:06;;;;;;;;;;;;;;;27.46;31.90;101482.81;5013340;28;1906;-75
2022/02/09 02:27:38;;;;;;;;;;;;;;;28.77;29.82;101496.50;5013096;28;1094;-77
2022/02/09 02:30:31;;;;;;;;;;;;;;;28.51;30.28;101490.03;5030708;28;920;-76
2022/02/09 02:33:18;;;;;;;;;;;;;;;28.77;29.88;101486.22;5030904;28;1430;-76
2022/02/09 02:36:16;;;;;;;;;;;;;;;28.60;30.13;101491.47;5030716;28;1042;-78
2022/02/09 02:39:12;;;;;;;;;;;;;;;26.90;32.31;101488.69;5030905;28;951;-77
2022/02/09 02:59:17;;;;;;;;;;;;;;;27.71;31.35;101471.78;5085366;28;2001;-77
2022/02/09 03:10:15;;;;;;;;;;;;;;;27.37;32.06;101465.50;5067828;28;994;-77
2022/02/09 03:12:44;;;;;;;;;;;;;;;28.26;30.65;101454.56;5066309;28;1329;-76
2022/02/09 03:15:27;;;;;;;;;;;;;;;28.51;30.48;101454.56;5067358;28;1038;-76
2022/02/09 03:18:09;;;;;;;;;;;;;;;28.34;30.25;101456.22;5067503;28;1037;-78
2022/02/09 03:20:43;;;;;;;;;;;;;;;28.47;30.21;101450.53;5067483;28;1018;-78
2022/02/09 03:23:27;;;;;;;;;;;;;;;27.91;31.24;101446.59;5065693;28;1984;-76
2022/02/09 03:26:10;;;;;;;;;;;;;;;27.21;31.39;101447.28;5070551;28;1487;-76
2022/02/09 03:42:16;;;;;;;;;;;;;;;29.00;29.60;101442.81;5067169;28;1274;-78
2022/02/09 03:42:47;;;;;;;;;;;;;;;28.17;30.95;101464.31;5066743;28;1300;-78
2022/02/09 03:48:22;;;;;;;;;;;;;;;28.66;30.00;101471.06;5062406;28;1095;-75
2022/02/09 03:53:55;;;;;;;;;;;;;;;28.14;30.53;101481.47;5129861;27;1648;-79
2022/02/09 03:56:28;;;;;;;;;;;;;;;27.76;30.96;101463.63;5129830;27;1007;-78
2022/02/09 03:58:55;;;;;;;;;;;;;;;26.55;32.20;101455.44;5128957;28;914;-77
2022/02/09 04:01:24;;;;;;;;;;;;;;;28.35;30.16;101463.50;5129559;27;1305;-75
2022/02/09 04:03:50;;;;;;;;;;;;;;;28.33;29.94;101460.13;5129153;27;962;-78
2022/02/09 04:06:17;;;;;;;;;;;;;;;26.75;32.41;101459.34;5129126;27;910;-75
2022/02/09 04:08:49;;;;;;;;;;;;;;;27.13;31.79;101451.16;5127742;27;1123;-74
2022/02/09 04:11:22;;;;;;;;;;;;;;;27.52;31.48;101449.34;5129295;27;1363;-77
2022/02/09 04:13:57;;;;;;;;;;;;;;;28.53;29.56;101449.63;5128941;27;1040;-78
2022/02/09 04:16:37;;;;;;;;;;;;;;;28.76;29.65;101445.41;5127399;28;824;-78
2022/02/09 04:19:19;;;;;;;;;;;;;;;28.01;30.65;101448.94;5128883;27;911;-78
2022/02/09 04:38:16;;;;;;;;;;;;;;;27.26;31.38;101447.47;5128502;27;1037;-77
2022/02/09 04:43:40;;;;;;;;;;;;;;;28.61;29.01;101440.13;5129437;27;874;-78
2022/02/09 04:46:34;;;;;;;;;;;;;;;29.25;28.13;101441.88;5128951;27;858;-75
2022/02/09 04:49:23;;;;;;;;;;;;;;;28.82;29.10;101452.00;5129858;27;989;-75
2022/02/09 04:52:02;;;;;;;;;;;;;;;28.44;29.56;101445.41;5134784;27;1961;-76
2022/02/09 04:54:34;;;;;;;;;;;;;;;27.76;30.36;101443.25;5150981;27;989;-75
2022/02/09 04:57:04;;;;;;;;;;;;;;;28.88;28.88;101454.72;5150633;27;1001;-76
2022/02/09 04:59:40;;;;;;;;;;;;;;;27.34;30.68;101446.38;5151451;27;973;-75
2022/02/09 05:02:31;;;;;;;;;;;;;;;27.95;29.93;101452.56;5151700;27;1445;-78
2022/02/09 05:05:34;;;;;;;;;;;;;;;28.29;29.95;101456.91;5121397;27;957;-76
2022/02/09 05:22:12;;;;;;;;;;;;;;;27.74;30.31;101440.69;5136058;27;1458;-76
2022/02/09 05:24:43;;;;;;;;;;;;;;;27.90;29.80;101442.94;5133892;27;911;-75
2022/02/09 05:27:19;;;;;;;;;;;;;;;27.28;31.36;101436.09;5134490;27;910;-75
2022/02/09 05:29:45;;;;;;;;;;;;;;;27.44;30.43;101426.44;5131420;27;1481;-76
2022/02/09 05:32:13;;;;;;;;;;;;;;;28.14;29.37;101432.13;5131783;27;1905;-75
2022/02/09 05:34:39;;;;;;;;;;;;;;;28.49;28.93;101419.59;5128310;27;1493;-76
2022/02/09 05:37:06;;;;;;;;;;;;;;;27.37;30.30;101421.75;5131602;27;1325;-74
2022/02/09 05:39:32;;;;;;;;;;;;;;;28.09;29.19;101417.97;5127297;27;1479;-75
2022/02/09 05:41:58;;;;;;;;;;;;;;;28.26;29.46;101417.44;5127955;27;1582;-76
2022/02/09 05:44:25;;;;;;;;;;;;;;;29.51;27.69;101427.63;5116930;27;1463;-74
2022/02/09 05:49:48;;;;;;;;;;;;;;;28.59;28.72;101419.09;5077445;28;1413;-74
2022/02/09 05:52:20;;;;;;;;;;;;;;;28.33;28.78;101421.88;5112184;27;1969;-76
2022/02/09 05:55:22;;;;;;;;;;;;;;;28.65;28.65;101418.19;5113198;28;1064;-77
2022/02/09 05:57:51;;;;;;;;;;;;;;;28.85;28.28;101416.09;5129868;27;1408;-76
2022/02/09 06:00:17;;;;;;;;;;;;;;;29.52;27.10;101417.31;5127559;27;1480;-77
2022/02/09 06:02:44;;;;;;;;;;;;;;;30.01;26.45;101409.75;5120096;27;1530;-75
2022/02/09 06:05:13;;;;;;;;;;;;;;;27.58;29.70;101407.72;5141768;27;867;-76
2022/02/09 06:07:40;;;;;;;;;;;;;;;28.82;28.02;101408.19;5132717;27;1572;-75
2022/02/09 06:10:12;;;;;;;;;;;;;;;28.44;28.13;101408.28;5114911;28;919;-75
2022/02/09 06:12:46;;;;;;;;;;;;;;;28.63;27.87;101404.44;5109890;27;1987;-76
2022/02/09 06:20:43;;;;;;;;;;;;;;;28.21;28.67;101404.16;5116227;27;1560;-77
2022/02/09 06:23:10;;;;;;;;;;;;;;;28.06;28.63;101408.13;5086407;22;2032;-75
2022/02/09 06:25:36;;;;;;;;;;;;;;;28.66;28.12;101408.75;5053387;28;1136;-76
2022/02/09 06:28:02;;;;;;;;;;;;;;;29.21;27.08;101411.63;5072124;28;1522;-73
2022/02/09 06:30:29;;;;;;;;;;;;;;;27.71;28.32;101410.44;5051713;28;967;-75
2022/02/09 06:32:55;;;;;;;;;;;;;;;28.67;27.40;101416.03;5051560;28;1914;-76
2022/02/09 06:35:21;;;;;;;;;;;;;;;27.99;28.07;101421.22;5033935;28;994;-74
2022/02/09 06:37:49;;;;;;;;;;;;;;;28.79;27.08;101405.81;5029748;28;1356;-74
2022/02/09 06:40:17;;;;;;;;;;;;;;;28.59;27.67;101411.56;5068334;28;1176;-76
2022/02/09 06:42:44;;;;;;;;;;;;;;;27.37;28.73;101407.81;5050954;28;1407;-76
2022/02/09 06:45:15;;;;;;;;;;;;;;;28.31;27.23;101418.44;5071102;28;930;-75
2022/02/09 06:47:42;;;;;;;;;;;;;;;27.66;28.23;101425.06;5071251;28;945;-74
2022/02/09 06:50:13;;;;;;;;;;;;;;;28.58;27.20;101418.22;5070777;28;1572;-75
2022/02/09 06:52:44;;;;;;;;;;;;;;;28.46;27.38;101409.75;5052937;28;1977;-75
2022/02/09 06:55:16;;;;;;;;;;;;;;;29.01;26.62;101408.16;5070271;28;1505;-76
2022/02/09 06:57:59;;;;;;;;;;;;;;;27.16;28.19;101411.69;5070201;28;1179;-73
2022/02/09 07:00:26;;;;;;;;;;;;;;;28.98;26.43;101408.66;5052506;28;1140;-74
2022/02/09 07:02:52;;;;;;;;;;;;;;;28.33;26.79;101407.09;5053092;28;1329;-74
2022/02/09 07:05:18;;;;;;;;;;;;;;;28.41;27.02;101406.78;5052302;28;1485;-76
2022/02/09 07:07:45;;;;;;;;;;;;;;;27.86;27.56;101411.00;5069287;28;1283;-74
2022/02/09 07:10:13;;;;;;;;;;;;;;;29.07;26.37;101410.06;5070616;28;1575;-75
2022/02/09 07:12:41;;;;;;;;;;;;;;;27.34;28.13;101405.44;5070116;28;1918;-73
2022/02/09 07:15:11;;;;;;;;;;;;;;;28.05;27.00;101394.41;5070157;28;1042;-74
2022/02/09 07:17:37;;;;;;;;;;;;;;;26.70;29.16;101399.56;5035845;28;1512;-76
2022/02/09 07:20:10;;;;;;;;;;;;;;;28.08;27.21;101399.53;5070456;28;1622;-76
2022/02/09 07:22:38;;;;;;;;;;;;;;;27.03;28.16;101401.47;5071689;28;1405;-75
2022/02/09 07:25:09;;;;;;;;;;;;;;;27.69;27.33;101404.25;5071088;28;1174;-75
2022/02/09 07:27:47;;;;;;;;;;;;;;;28.69;26.36;101413.91;5073750;28;805;-77
2022/02/09 07:30:14;;;;;;;;;;;;;;;28.91;26.47;101419.06;5070344;28;1592;-76
2022/02/09 07:32:41;;;;;;;;;;;;;;;26.68;28.51;101404.47;5054933;28;1917;-76
2022/02/09 07:35:07;;;;;;;;;;;;;;;28.38;26.67;101415.59;5069417;28;1576;-76
2022/02/09 07:37:34;;;;;;;;;;;;;;;28.00;26.98;101408.97;5072582;28;1525;-76
2022/02/09 07:40:04;;;;;;;;;;;;;;;28.44;27.07;101406.34;5070541;28;998;-75
2022/02/09 07:42:32;;;;;;;;;;;;;;;27.75;27.67;101406.13;5070145;28;1411;-75
2022/02/09 07:45:25;;;;;;;;;;;;;;;28.13;27.09;101405.28;5035583;28;1411;-73
2022/02/09 07:48:11;;;;;;;;;;;;;;;27.82;26.96;101404.16;5069999;28;1529;-75
2022/02/09 07:50:41;;;;;;;;;;;;;;;29.11;25.77;101400.13;5067302;28;1504;-76
2022/02/09 07:53:11;;;;;;;;;;;;;;;29.74;24.96;101406.44;5069211;28;1973;-73
2022/02/09 07:55:38;;;;;;;;;;;;;;;28.28;26.29;101395.75;5069127;28;1489;-73
2022/02/09 07:58:04;;;;;;;;;;;;;;;29.27;25.11;101397.84;5069980;28;1521;-75
2022/02/09 08:00:32;;;;;;;;;;;;;;;27.76;27.02;101398.63;5068956;28;1064;-76
2022/02/09 08:02:58;;;;;;;;;;;;;;;28.77;25.72;101405.22;5052676;28;1333;-75
2022/02/09 08:05:25;;;;;;;;;;;;;;;28.30;26.01;101397.22;5048067;28;1161;-73
2022/02/09 08:07:53;;;;;;;;;;;;;;;29.46;25.37;101405.09;5051364;28;2085;-76
2022/02/09 08:10:25;;;;;;;;;;;;;;;28.87;25.17;101405.53;5067173;28;1509;-76
2022/02/09 08:24:06;;;;;;;;;;;;;;;27.84;26.64;101401.16;5014746;28;1108;-74
2022/02/09 08:26:52;;;;;;;;;;;;;;;28.18;26.44;101383.16;5089505;28;1018;-77
2022/02/09 08:29:24;;;;;;;;;;;;;;;29.08;25.54;101389.41;5079055;28;900;-76
2022/02/09 08:34:35;;;;;;;;;;;;;;;28.45;25.86;101391.28;5051704;28;1988;-75
2022/02/09 08:37:02;;;;;;;;;;;;;;;28.48;25.93;101390.84;5050262;28;1218;-75
2022/02/09 08:39:28;;;;;;;;;;;;;;;28.76;25.32;101389.53;5070857;28;1517;-74
2022/02/09 08:41:55;;;;;;;;;;;;;;;29.64;24.51;101395.84;5055072;28;1486;-75
2022/02/09 08:44:21;;;;;;;;;;;;;;;28.98;25.34;101405.84;5072846;28;872;-74
2022/02/09 08:46:48;;;;;;;;;;;;;;;27.33;27.06;101406.50;5073552;28;1004;-74
2022/02/09 08:49:15;;;;;;;;;;;;;;;29.09;25.46;101402.31;5073760;28;823;-73
2022/02/09 08:51:42;;;;;;;;;;;;;;;28.78;25.34;101395.72;5055212;28;1679;-74
2022/02/09 08:54:08;;;;;;;;;;;;;;;27.96;26.32;101401.31;5055152;28;1993;-73
2022/02/09 08:56:38;;;;;;;;;;;;;;;29.38;24.70;101406.28;5071408;28;1446;-77
2022/02/09 08:59:05;;;;;;;;;;;;;;;28.96;25.00;101392.13;5072941;28;1470;-76
2022/02/09 09:01:36;;;;;;;;;;;;;;;28.46;25.04;101389.34;5051517;28;2285;-76
2022/02/09 09:04:10;;;;;;;;;;;;;;;28.98;25.05;101401.13;5085265;28;1343;-75
2022/02/09 09:06:40;;;;;;;;;;;;;;;28.76;24.94;101386.75;5077223;28;1144;-74
2022/02/09 09:09:22;;;;;;;;;;;;;;;28.45;25.13;101396.00;5072820;28;990;-74
2022/02/09 09:15:14;;;;;;;;;;;;;;;29.26;24.36;101393.31;5073078;28;1918;-75
2022/02/09 10:01:44;;;;;;;;;;;;;;;28.83;23.71;101373.56;5062001;28;1637;-77
2022/02/09 10:04:32;;;;;;;;;;;;;;;29.00;24.05;101376.59;5071718;28;1307;-74
2022/02/09 10:32:46;;;;;;;;;;;;;;;29.36;24.05;101360.09;5071385;28;1517;-75
2022/02/09 10:35:20;;;;;;;;;;;;;;;28.78;24.07;101361.38;5066623;28;1969;-74
2022/02/09 10:37:46;;;;;;;;;;;;;;;28.75;23.96;101339.50;5070670;28;1088;-76
2022/02/09 10:40:26;;;;;;;;;;;;;;;30.52;22.71;101340.25;5052710;28;1265;-76
2022/02/09 10:42:59;;;;;;;;;;;;;;;29.80;23.30;101348.69;5070356;28;1536;-75
2022/02/09 10:45:32;;;;;;;;;;;;;;;28.94;24.18;101337.56;5070658;28;923;-75
2022/02/09 10:47:59;;;;;;;;;;;;;;;30.08;22.83;101342.50;5070409;28;1543;-74
2022/02/09 10:50:27;;;;;;;;;;;;;;;28.72;23.99;101338.88;5052465;28;1552;-77
2022/02/09 10:52:54;;;;;;;;;;;;;;;30.57;22.24;101333.06;5070718;28;1355;-77
2022/02/09 10:55:28;;;;;;;;;;;;;;;29.44;22.96;101333.72;5052858;28;1910;-76
2022/02/09 10:57:55;;;;;;;;;;;;;;;29.08;23.70;101329.84;5070521;28;1022;-73
2022/02/09 11:00:22;;;;;;;;;;;;;;;29.38;23.37;101330.81;5070208;28;1568;-75
2022/02/09 11:02:50;;;;;;;;;;;;;;;27.99;24.13;101322.72;5069405;28;1581;-75
2022/02/09 11:05:19;;;;;;;;;;;;;;;29.29;23.73;101325.75;5066364;28;1351;-75
2022/02/09 11:07:45;;;;;;;;;;;;;;;29.70;23.04;101329.69;5070004;28;1328;-74
2022/02/09 11:10:12;;;;;;;;;;;;;;;29.64;22.56;101311.09;5070665;28;1142;-76
2022/02/09 11:12:40;;;;;;;;;;;;;;;29.22;22.96;101321.09;5052071;28;1406;-76
2022/02/09 11:15:06;;;;;;;;;;;;;;;28.50;23.51;101326.38;5070390;28;1914;-72
2022/02/09 11:17:33;;;;;;;;;;;;;;;27.39;25.23;101323.97;5070333;28;961;-75
2022/02/09 11:20:01;;;;;;;;;;;;;;;27.66;24.65;101329.38;5052071;28;1555;-76
2022/02/09 11:22:39;;;;;;;;;;;;;;;30.33;22.42;101314.28;5070068;28;1377;-75
2022/02/09 11:25:09;;;;;;;;;;;;;;;28.58;23.32;101306.53;5070329;28;721;-74
2022/02/09 11:27:38;;;;;;;;;;;;;;;29.10;23.47;101325.75;5069873;28;1264;-78
2022/02/09 11:30:10;;;;;;;;;;;;;;;30.01;22.35;101320.22;5069350;28;1722;-75
2022/02/09 11:32:42;;;;;;;;;;;;;;;28.78;23.70;101311.94;5070283;28;1484;-74
2022/02/09 11:35:26;;;;;;;;;;;;;;;30.25;22.34;101319.38;5068981;28;1910;-74
2022/02/09 11:37:59;;;;;;;;;;;;;;;28.44;24.09;101327.31;5069753;28;1037;-75
2022/02/09 11:40:33;;;;;;;;;;;;;;;28.91;23.68;101313.72;5070197;28;987;-75
2022/02/09 11:43:14;;;;;;;;;;;;;;;28.92;23.83;101320.19;5072079;28;1538;-75
2022/02/09 11:46:02;;;;;;;;;;;;;;;29.20;23.20;101320.47;5069114;28;1492;-76
2022/02/09 11:48:52;;;;;;;;;;;;;;;30.12;22.23;101320.47;5069858;28;1478;-74
2022/02/09 11:51:35;;;;;;;;;;;;;;;27.67;24.96;101311.59;5051934;28;1505;-75
2022/02/09 11:57:11;;;;;;;;;;;;;;;28.34;24.08;101311.06;4994774;28;1251;-76
2022/02/09 12:00:05;;;;;;;;;;;;;;;29.86;22.56;101322.59;4972085;28;1279;-77
2022/02/09 12:11:08;;;;;;;;;;;;;;;29.55;22.81;101322.59;5069185;28;1564;-78
2022/02/09 12:13:43;;;;;;;;;;;;;;;29.36;23.58;101312.56;5069915;28;2001;-77
2022/02/09 12:16:41;;;;;;;;;;;;;;;29.72;22.76;101310.75;5073699;28;1041;-75
2022/02/09 12:19:11;;;;;;;;;;;;;;;29.39;23.34;101312.09;5074025;28;1048;-73
2022/02/09 12:21:49;;;;;;;;;;;;;;;29.51;22.98;101301.78;5038517;28;1537;-75
2022/02/09 12:24:33;;;;;;;;;;;;;;;29.34;23.19;101310.00;5095764;22;3464;-78
2022/02/09 12:27:02;;;;;;;;;;;;;;;28.60;23.65;101298.81;5091151;28;1029;-77
2022/02/09 12:29:29;;;;;;;;;;;;;;;30.29;21.87;101303.81;5114301;27;1381;-77
2022/02/09 12:31:55;;;;;;;;;;;;;;;28.96;23.85;101301.88;5113788;28;948;-77
2022/02/09 12:34:23;;;;;;;;;;;;;;;28.71;23.69;101312.00;5107449;28;1906;-79
2022/02/09 12:36:49;;;;;;;;;;;;;;;28.64;23.99;101314.03;5093121;28;1325;-79
2022/02/09 12:39:17;;;;;;;;;;;;;;;26.87;26.17;101310.00;5107057;28;1519;-79
2022/02/09 12:41:44;;;;;;;;;;;;;;;27.86;24.87;101305.03;5107947;28;1500;-80
2022/02/09 12:44:12;;;;;;;;;;;;;;;28.88;24.10;101314.22;5115355;28;1294;-77
2022/02/09 12:46:41;;;;;;;;;;;;;;;28.14;25.22;101314.94;5108844;28;1110;-78
2022/02/09 12:49:08;;;;;;;;;;;;;;;26.84;27.36;101319.66;5093956;28;1030;-79
2022/02/09 12:51:35;;;;;;;;;;;;;;;27.61;26.65;101318.91;5094571;28;1230;-78
2022/02/09 12:54:02;;;;;;;;;;;;;;;28.08;26.07;101306.59;5092774;28;1914;-77
2022/02/09 12:56:29;;;;;;;;;;;;;;;28.08;25.80;101301.03;5075384;28;995;-78
2022/02/09 12:58:56;;;;;;;;;;;;;;;27.82;26.33;101292.63;5093041;28;945;-76
2022/02/09 13:01:24;;;;;;;;;;;;;;;29.09;25.09;101295.25;5099410;28;1453;-77
2022/02/09 13:03:50;;;;;;;;;;;;;;;29.39;24.57;101307.34;5097929;28;1595;-75
2022/02/09 13:06:17;;;;;;;;;;;;;;;29.53;24.72;101301.53;5089188;28;1007;-76
2022/02/09 13:08:50;;;;;;;;;;;;;;;29.66;24.75;101306.09;5092944;28;1043;-75
2022/02/09 13:11:20;;;;;;;;;;;;;;;28.40;26.04;101297.06;5091914;28;1041;-77
2022/02/09 13:13:49;;;;;;;;;;;;;;;28.02;26.71;101286.91;5092747;28;1992;-77
2022/02/09 13:16:35;;;;;;;;;;;;;;;27.95;26.49;101280.47;5092211;28;1332;-76
2022/02/09 13:19:09;;;;;;;;;;;;;;;27.42;27.11;101278.06;5091040;28;1227;-76
2022/02/09 13:52:26;;;;;;;;;;;;;;;28.10;26.14;101294.16;5092454;28;852;-76
2022/02/09 14:11:58;;;;;;;;;;;;;;;27.16;26.94;101303.03;5091988;28;1044;-78
2022/02/09 14:17:15;;;;;;;;;;;;;;;29.23;25.21;101297.63;5090495;28;1260;-77
2022/02/09 14:52:48;;;;;;;;;;;;;;;27.69;28.35;101310.28;5057593;28;2483;-78
2022/02/09 14:55:28;;;;;;;;;;;;;;;27.40;28.39;101301.44;5070262;28;1992;-76
2022/02/09 14:58:04;;;;;;;;;;;;;;;26.69;29.17;101303.19;5070880;28;757;-75
2022/02/09 15:00:32;;;;;;;;;;;;;;;28.21;28.19;101304.53;5068929;28;2546;-77
2022/02/09 15:03:06;;;;;;;;;;;;;;;28.01;28.23;101306.66;5087683;28;2290;-76
2022/02/09 15:08:24;;;;;;;;;;;;;;;28.80;26.71;101304.19;5070357;28;982;-76
2022/02/09 15:11:04;;;;;;;;;;;;;;;28.94;27.06;101312.41;5070187;28;895;-76
2022/02/09 15:13:38;;;;;;;;;;;;;;;29.51;26.17;101293.41;5070529;28;776;-77
2022/02/09 15:16:13;;;;;;;;;;;;;;;29.25;26.92;101304.94;5070130;28;1914;-76
2022/02/09 15:21:47;;;;;;;;;;;;;;;28.20;27.68;101294.47;5070723;28;911;-78
2022/02/09 15:24:13;;;;;;;;;;;;;;;28.67;27.25;101299.59;5069728;28;1323;-77
2022/02/09 15:26:41;;;;;;;;;;;;;;;29.54;26.28;101295.75;5052607;28;975;-77
2022/02/09 15:29:10;;;;;;;;;;;;;;;29.15;26.19;101299.91;5052306;28;975;-78
2022/02/09 15:31:41;;;;;;;;;;;;;;;28.35;27.24;101301.63;5070985;28;907;-77
2022/02/09 15:34:15;;;;;;;;;;;;;;;28.98;26.52;101316.44;5051729;28;2662;-79
2022/02/09 15:37:00;;;;;;;;;;;;;;;29.60;25.88;101307.03;5085451;28;2680;-78
2022/02/09 15:39:29;;;;;;;;;;;;;;;29.02;26.55;101303.72;5070996;28;1570;-79
2022/02/09 15:42:11;;;;;;;;;;;;;;;28.92;26.49;101307.06;5092324;28;2495;-79
2022/02/09 15:58:35;;;;;;;;;;;;;;;29.70;25.47;101310.13;5089820;28;982;-76
2022/02/09 16:06:59;;;;;;;;;;;;;;;28.92;26.18;101306.22;5090787;28;919;-78
2022/02/09 16:09:26;;;;;;;;;;;;;;;28.83;26.20;101306.50;5072602;28;1106;-78
2022/02/09 16:23:09;;;;;;;;;;;;;;;29.56;25.24;101301.94;5069272;28;788;-81
2022/02/09 16:25:52;;;;;;;;;;;;;;;29.88;25.13;101296.09;5049618;28;1343;-83
2022/02/09 16:34:21;;;;;;;;;;;;;;;27.91;27.21;101301.53;5048301;28;1360;-77
2022/02/09 16:37:27;;;;;;;;;;;;;;;28.19;27.07;101306.72;5068728;28;1086;-80
2022/02/09 16:45:24;;;;;;;;;;;;;;;29.36;25.67;101315.34;5076322;28;1399;-80
2022/02/09 16:47:59;;;;;;;;;;;;;;;28.94;25.83;101313.25;5082327;28;1093;-78
2022/02/09 16:50:33;;;;;;;;;;;;;;;29.21;26.35;101319.38;5080221;28;1110;-80
2022/02/09 16:53:05;;;;;;;;;;;;;;;28.58;26.67;101314.91;5058564;28;753;-82
2022/02/09 16:56:17;;;;;;;;;;;;;;;27.32;28.18;101317.56;5080636;28;1910;-81
2022/02/09 17:20:34;;;;;;;;;;;;;;;27.87;27.06;101311.44;5056220;28;1002;-79
2022/02/09 17:23:00;;;;;;;;;;;;;;;29.55;24.94;101311.41;5073530;28;1106;-79
2022/02/09 17:25:27;;;;;;;;;;;;;;;29.70;25.34;101324.09;5054881;28;1333;-79
2022/02/09 17:27:53;;;;;;;;;;;;;;;28.70;26.27;101317.84;5073541;28;805;-78
2022/02/09 17:33:11;;;;;;;;;;;;;;;29.56;24.96;101317.88;5055157;28;1410;-79
2022/02/09 17:35:48;;;;;;;;;;;;;;;28.78;25.78;101317.53;5054651;28;1976;-77
2022/02/09 17:57:44;;;;;;;;;;;;;;;28.46;26.20;101341.88;5074865;28;855;-79
2022/02/09 18:00:14;;;;;;;;;;;;;;;29.73;24.62;101340.41;5074431;28;819;-78
2022/02/09 18:02:41;;;;;;;;;;;;;;;28.37;26.45;101336.59;5093044;28;982;-80
2022/02/09 18:05:14;;;;;;;;;;;;;;;29.35;24.85;101339.66;5092251;28;1292;-77
2022/02/09 18:07:43;;;;;;;;;;;;;;;29.41;24.36;101337.00;5092641;28;906;-77
2022/02/09 18:10:18;;;;;;;;;;;;;;;29.45;24.93;101343.81;5092478;28;983;-78
2022/02/09 18:13:20;;;;;;;;;;;;;;;29.56;24.63;101341.09;5074077;28;1089;-78
2022/02/09 18:29:43;;;;;;;;;;;;;;;28.07;26.33;101336.44;5060586;28;1291;-75
2022/02/09 18:32:50;;;;;;;;;;;;;;;28.35;25.93;101337.91;5048370;28;867;-75
2022/02/09 18:38:22;;;;;;;;;;;;;;;28.14;26.47;101334.47;5041609;28;1981;-78
2022/02/09 18:42:01;;;;;;;;;;;;;;;28.88;25.42;101339.34;5029195;28;935;-77
2022/02/09 18:44:09;;;;;;;;;;;;;;;27.67;26.82;101331.09;5022181;28;1640;-76
2022/02/09 18:46:51;;;;;;;;;;;;;;;29.27;24.59;101339.13;5032733;28;1505;-77
2022/02/09 19:00:40;;;;;;;;;;;;;;;28.92;24.82;101340.59;4976949;28;1507;-75
2022/02/09 19:03:06;;;;;;;;;;;;;;;29.95;24.08;101325.94;5004538;28;1125;-74
2022/02/09 19:05:39;;;;;;;;;;;;;;;29.76;24.25;101337.16;5015821;28;1534;-75
2022/02/09 19:08:18;;;;;;;;;;;;;;;30.11;23.69;101341.16;5037236;28;1264;-77
2022/02/09 19:19:21;;;;;;;;;;;;;;;29.95;24.11;101332.34;5024900;28;1081;-75
2022/02/09 19:30:01;;;;;;;;;;;;;;;27.87;25.98;101329.06;5010107;28;2112;-74
2022/02/09 19:32:56;;;;;;;;;;;;;;;29.03;24.86;101342.59;5011920;28;1395;-78
2022/02/09 19:46:34;;;;;;;;;;;;;;;27.75;26.46;101343.94;5009552;28;1507;-76
2022/02/09 19:49:07;;;;;;;;;;;;;;;28.30;26.40;101332.16;5010773;28;1202;-77
2022/02/09 19:51:37;;;;;;;;;;;;;;;28.91;25.30;101340.81;5006519;28;1588;-74
2022/02/09 19:54:10;;;;;;;;;;;;;;;28.34;25.73;101325.91;4992542;28;1038;-75
2022/02/09 19:56:41;;;;;;;;;;;;;;;28.84;25.36;101338.94;5006421;28;1990;-76
2022/02/09 19:59:14;;;;;;;;;;;;;;;29.45;24.64;101344.69;5011859;28;1498;-76
2022/02/09 20:01:42;;;;;;;;;;;;;;;28.96;25.21;101346.56;5011590;28;1386;-75
2022/02/09 20:04:08;;;;;;;;;;;;;;;29.38;24.83;101347.59;5010220;28;1488;-74
2022/02/09 20:06:35;;;;;;;;;;;;;;;29.44;24.77;101337.38;5008454;28;1616;-75
2022/02/09 20:09:02;;;;;;;;;;;;;;;29.21;24.50;101338.94;5002828;28;1483;-76
2022/02/09 20:11:28;;;;;;;;;;;;;;;28.12;26.32;101338.56;5005942;28;1495;-74
2022/02/09 20:13:56;;;;;;;;;;;;;;;28.27;26.04;101327.03;4998743;28;947;-77
2022/02/09 20:16:22;;;;;;;;;;;;;;;30.15;24.01;101337.63;5030560;28;1330;-75
2022/02/09 20:18:49;;;;;;;;;;;;;;;29.10;25.20;101338.88;5033422;28;1911;-76
2022/02/09 20:21:16;;;;;;;;;;;;;;;28.89;25.37;101333.53;5033720;28;990;-77
2022/02/09 20:23:42;;;;;;;;;;;;;;;29.12;25.38;101340.34;5031995;28;1279;-76
2022/02/09 20:26:11;;;;;;;;;;;;;;;29.77;24.03;101329.59;5032445;28;1400;-74
2022/02/09 20:28:42;;;;;;;;;;;;;;;29.87;24.12;101339.16;5032593;28;1061;-76
2022/02/09 20:31:14;;;;;;;;;;;;;;;29.70;24.25;101327.78;5032688;28;845;-74
2022/02/09 20:33:45;;;;;;;;;;;;;;;29.34;24.92;101328.69;5032362;28;686;-75
2022/02/09 20:36:13;;;;;;;;;;;;;;;28.99;25.18;101321.78;5032075;28;1334;-74
2022/02/09 20:38:42;;;;;;;;;;;;;;;29.86;24.25;101334.63;5032657;28;1977;-75
2022/02/09 20:41:10;;;;;;;;;;;;;;;28.91;25.16;101330.50;5031400;28;813;-74
2022/02/09 20:43:43;;;;;;;;;;;;;;;29.44;24.50;101337.38;5032384;28;804;-75
2022/02/09 20:46:12;;;;;;;;;;;;;;;29.31;24.29;101337.56;5032023;28;1349;-76
2022/02/09 20:48:38;;;;;;;;;;;;;;;29.12;24.81;101340.34;5031833;28;1046;-76
2022/02/09 20:51:05;;;;;;;;;;;;;;;29.73;24.08;101337.59;5032501;28;848;-74
2022/02/09 20:53:31;;;;;;;;;;;;;;;30.00;23.83;101338.09;5033126;28;1054;-77
2022/02/09 20:55:58;;;;;;;;;;;;;;;29.43;24.20;101338.47;5033401;28;1301;-76
2022/02/09 20:58:25;;;;;;;;;;;;;;;29.32;24.47;101339.28;5033665;28;1976;-74
2022/02/09 21:00:55;;;;;;;;;;;;;;;29.97;24.06;101338.59;5034295;28;1034;-73
2022/02/09 21:03:39;;;;;;;;;;;;;;;29.52;24.09;101339.84;5009636;28;2187;-74
2022/02/09 21:06:12;;;;;;;;;;;;;;;29.30;24.46;101330.28;5016067;28;1330;-75
2022/02/09 21:08:57;;;;;;;;;;;;;;;28.98;24.83;101349.97;5022545;28;1128;-75
2022/02/09 21:11:30;;;;;;;;;;;;;;;29.35;24.39;101336.84;5012657;28;1015;-74
2022/02/09 21:14:12;;;;;;;;;;;;;;;30.11;23.51;101342.00;5014043;28;880;-75
2022/02/09 21:16:50;;;;;;;;;;;;;;;28.88;25.15;101342.97;5018706;28;1313;-74
2022/02/09 21:19:45;;;;;;;;;;;;;;;29.32;24.42;101347.66;5011937;28;1915;-76
2022/02/09 21:22:35;;;;;;;;;;;;;;;29.94;23.75;101346.59;5030103;28;1384;-75
2022/02/09 21:25:27;;;;;;;;;;;;;;;30.36;23.36;101339.00;5031033;28;1126;-75
2022/02/09 21:42:03;;;;;;;;;;;;;;;28.87;24.59;101332.88;5022248;28;1602;-75